createdAt,value
2019-02-06T00:02:10.021Z,3.50
2019-02-06T00:04:15.557Z,3.50
2019-02-06T00:06:19.606Z,3.40
2019-02-06T00:08:23.912Z,3.40
2019-02-06T00:10:28.196Z,3.40
2019-02-06T00:12:34.068Z,3.40
2019-02-06T00:14:38.479Z,3.20
2019-02-06T00:16:45.090Z,3.20
2019-02-06T00:18:52.351Z,3.20
2019-02-06T00:20:59.125Z,3.10
2019-02-06T00:23:03.591Z,3.10
2019-02-06T00:25:07.965Z,3.00
2019-02-06T00:27:12.800Z,3.00
2019-02-06T00:29:25.470Z,3.00
2019-02-06T00:31:29.776Z,2.90
2019-02-06T00:33:36.976Z,2.90
2019-02-06T00:35:49.325Z,2.70
2019-02-06T00:37:54.716Z,2.70
2019-02-06T00:44:21.700Z,2.60
2019-02-06T00:50:56.319Z,2.50
2019-02-06T00:53:32.040Z,2.50
2019-02-06T00:55:36.893Z,2.40
2019-02-06T00:57:41.692Z,2.40
2019-02-06T00:59:58.544Z,2.40
2019-02-06T01:02:13.469Z,2.50
2019-02-06T01:04:19.441Z,2.50
2019-02-06T01:06:28.399Z,2.50
2019-02-06T01:08:34.028Z,2.50
2019-02-06T01:10:42.943Z,2.60
2019-02-06T01:12:56.065Z,2.60
2019-02-06T01:15:24.364Z,2.70
2019-02-06T01:17:53.966Z,2.70
2019-02-06T01:20:08.883Z,2.70
2019-02-06T01:22:23.663Z,2.80
2019-02-06T01:31:41.543Z,2.80
2019-02-06T01:37:04.495Z,2.70
2019-02-06T01:39:11.615Z,2.70
2019-02-06T01:41:20.588Z,2.60
2019-02-06T01:43:24.745Z,2.60
2019-02-06T01:45:28.967Z,2.50
2019-02-06T01:47:33.594Z,2.50
2019-02-06T01:49:48.968Z,2.40
2019-02-06T01:51:49.262Z,2.30
2019-02-06T01:54:01.120Z,2.30
2019-02-06T02:06:28.240Z,2.10
2019-02-06T02:09:16.987Z,2.00
2019-02-06T02:11:26.429Z,2.00
2019-02-06T02:13:33.514Z,2.00
2019-02-06T02:15:37.752Z,2.00
2019-02-06T02:17:45.026Z,2.00
2019-02-06T02:19:49.777Z,2.00
2019-02-06T02:22:04.485Z,2.10
2019-02-06T02:24:09.276Z,2.10
2019-02-06T02:40:15.371Z,2.10
2019-02-06T02:42:19.660Z,2.00
2019-02-06T02:44:26.465Z,2.00
2019-02-06T02:46:35.212Z,2.00
2019-02-06T02:48:43.440Z,2.00
2019-02-06T02:50:49.857Z,2.10
2019-02-06T02:52:55.515Z,2.10
2019-02-06T02:54:59.549Z,2.10
2019-02-06T02:58:00.379Z,2.10
2019-02-06T03:10:48.013Z,2.10
2019-02-06T03:12:52.070Z,2.20
2019-02-06T03:14:59.085Z,2.20
2019-02-06T03:17:03.550Z,2.20
2019-02-06T03:19:12.036Z,2.20
2019-02-06T03:21:20.519Z,2.20
2019-02-06T03:23:24.552Z,2.20
2019-02-06T03:25:32.982Z,2.20
2019-02-06T03:27:34.651Z,2.30
2019-02-06T03:29:41.557Z,2.30
2019-02-06T03:31:47.008Z,2.30
2019-02-06T03:33:55.892Z,2.40
2019-02-06T03:36:00.292Z,2.40
2019-02-06T03:38:07.782Z,2.40
2019-02-06T03:40:12.472Z,2.50
2019-02-06T03:42:19.204Z,2.50
2019-02-06T03:44:23.348Z,2.50
2019-02-06T03:46:27.559Z,2.50
2019-02-06T03:48:31.725Z,2.60
2019-02-06T03:50:36.377Z,2.60
2019-02-06T03:52:40.643Z,2.60
2019-02-06T03:54:47.175Z,2.60
2019-02-06T03:56:51.491Z,2.60
2019-02-06T03:58:55.976Z,2.60
2019-02-06T04:01:00.699Z,2.60
2019-02-06T04:03:05.007Z,2.60
2019-02-06T04:05:12.064Z,2.60
2019-02-06T04:07:16.179Z,2.60
2019-02-06T04:09:20.882Z,2.60
2019-02-06T04:11:30.080Z,2.60
2019-02-06T04:13:40.678Z,2.60
2019-02-06T04:15:45.238Z,2.60
2019-02-06T04:17:49.903Z,2.60
2019-02-06T04:19:56.850Z,2.60
2019-02-06T04:22:01.191Z,2.50
2019-02-06T04:24:08.590Z,2.50
2019-02-06T04:26:17.433Z,2.50
2019-02-06T04:28:24.568Z,2.40
2019-02-06T04:30:31.550Z,2.40
2019-02-06T04:32:34.886Z,2.40
2019-02-06T04:34:51.272Z,2.40
2019-02-06T04:37:06.583Z,2.30
2019-02-06T04:39:07.718Z,2.30
2019-02-06T04:41:12.501Z,2.30
2019-02-06T04:43:20.220Z,2.30
2019-02-06T04:45:27.562Z,2.20
2019-02-06T04:47:56.337Z,2.20
2019-02-06T04:50:03.895Z,2.20
2019-02-06T04:52:08.591Z,2.20
2019-02-06T04:54:24.316Z,2.20
2019-02-06T04:56:31.843Z,2.20
2019-02-06T04:58:40.925Z,2.10
2019-02-06T05:00:42.598Z,2.10
2019-02-06T05:02:50.264Z,2.10
2019-02-06T05:05:00.103Z,2.10
2019-02-06T05:07:18.645Z,2.10
2019-02-06T05:09:14.881Z,2.10
2019-02-06T05:11:19.534Z,2.10
2019-02-06T05:13:27.644Z,2.10
2019-02-06T05:15:31.974Z,2.10
2019-02-06T05:17:36.917Z,2.10
2019-02-06T05:19:43.893Z,2.10
2019-02-06T05:21:50.842Z,2.10
2019-02-06T05:24:01.908Z,2.10
2019-02-06T05:26:06.756Z,2.20
2019-02-06T05:28:10.926Z,2.30
2019-02-06T05:30:21.572Z,2.30
2019-02-06T05:32:34.762Z,2.40
2019-02-06T05:34:42.113Z,2.50
2019-02-06T05:36:51.191Z,2.60
2019-02-06T05:38:58.583Z,2.70
2019-02-06T05:41:10.259Z,2.80
2019-02-06T05:44:35.197Z,2.90
2019-02-06T05:57:17.384Z,3.00
2019-02-06T05:59:20.071Z,3.00
2019-02-06T06:01:30.248Z,3.00
2019-02-06T06:03:36.060Z,3.00
2019-02-06T06:05:40.157Z,3.00
2019-02-06T06:07:53.245Z,3.00
2019-02-06T06:10:00.159Z,3.00
2019-02-06T06:12:04.889Z,3.00
2019-02-06T06:35:35.392Z,2.90
2019-02-06T06:38:21.767Z,2.90
2019-02-06T06:40:46.984Z,2.90
2019-02-06T06:43:34.354Z,2.90
2019-02-06T07:01:11.150Z,2.80
2019-02-06T07:03:21.718Z,2.90
2019-02-06T07:11:11.153Z,2.80
2019-02-06T11:48:49.203Z,9.70
2019-02-06T13:53:37.181Z,10.30
2019-02-06T13:55:49.985Z,10.20
2019-02-06T13:58:00.318Z,10.10
2019-02-06T14:00:20.190Z,10.00
2019-02-06T14:02:32.709Z,9.90
2019-02-06T14:21:45.575Z,10.20
2019-02-06T14:24:30.606Z,10.20
2019-02-06T14:59:59.807Z,10.30
2019-02-06T15:03:15.477Z,10.30
2019-02-06T15:06:09.620Z,10.40
2019-02-06T15:09:00.195Z,10.30
2019-02-06T16:15:29.370Z,9.70
2019-02-06T16:18:33.541Z,9.60
2019-02-06T16:21:15.002Z,9.60
2019-02-06T16:24:14.037Z,9.60
2019-02-06T16:26:59.877Z,9.60
2019-02-06T16:29:16.611Z,9.60
2019-02-06T16:31:51.037Z,9.50
2019-02-06T16:34:17.436Z,9.50
2019-02-06T16:37:01.420Z,9.50
2019-02-06T16:40:03.752Z,9.50
2019-02-06T16:42:40.759Z,9.50
2019-02-06T16:45:20.530Z,9.50
2019-02-06T16:48:10.173Z,9.50
2019-02-06T16:50:55.357Z,9.50
2019-02-06T16:53:43.364Z,9.50
2019-02-06T16:56:52.698Z,9.50
2019-02-06T17:00:05.604Z,9.50
2019-02-06T17:03:02.932Z,9.50
2019-02-06T17:19:52.770Z,9.40
2019-02-06T17:23:06.689Z,9.50
2019-02-06T17:25:48.881Z,9.50
2019-02-06T17:28:44.129Z,9.50
2019-02-06T17:31:31.504Z,9.50
2019-02-06T17:34:47.051Z,9.40
2019-02-06T17:38:00.856Z,9.40
2019-02-06T17:52:23.562Z,9.00
2019-02-06T18:09:02.341Z,9.10
2019-02-06T18:15:00.198Z,9.10
2019-02-06T18:18:10.494Z,9.10
2019-02-06T18:33:24.145Z,9.10
2019-02-06T18:44:13.906Z,9.20
2019-02-06T18:46:47.501Z,9.20
2019-02-06T18:57:44.793Z,9.20
2019-02-06T19:04:34.854Z,9.30
2019-02-06T19:06:45.355Z,9.20
2019-02-06T19:09:37.752Z,9.30
2019-02-06T19:14:50.264Z,9.20
2019-02-06T19:28:21.866Z,9.20
2019-02-06T19:29:24.445Z,9.20
2019-02-06T19:31:40.633Z,9.20
2019-02-06T19:38:12.879Z,9.20
2019-02-06T19:44:07.184Z,9.20
2019-02-06T19:46:45.725Z,9.20
2019-02-06T19:49:12.596Z,9.20
2019-02-06T19:51:26.082Z,9.20
2019-02-06T19:53:30.521Z,9.20
2019-02-06T19:58:32.893Z,9.10
2019-02-06T20:01:14.557Z,9.10
2019-02-06T20:03:48.688Z,9.10
2019-02-06T20:06:46.508Z,9.10
2019-02-06T20:08:59.893Z,9.10
2019-02-06T20:13:49.141Z,9.10
2019-02-06T20:15:59.581Z,9.10
2019-02-06T20:18:29.684Z,9.00
2019-02-06T20:20:50.519Z,9.00
2019-02-06T20:27:01.161Z,9.00
2019-02-06T20:32:48.065Z,8.90
2019-02-06T20:46:04.270Z,8.90
2019-02-06T20:49:21.489Z,8.90
2019-02-06T20:52:00.339Z,8.90
2019-02-06T20:54:38.389Z,8.90
2019-02-06T20:56:31.689Z,9.00
2019-02-06T21:02:46.466Z,8.90
2019-02-06T21:06:22.613Z,9.00
2019-02-06T21:29:01.105Z,8.90
2019-02-06T21:38:19.217Z,8.80
2019-02-06T21:44:52.384Z,8.70
2019-02-06T21:47:40.148Z,8.70
2019-02-06T21:50:26.086Z,8.70
2019-02-06T21:53:46.737Z,8.70
2019-02-06T21:59:28.596Z,8.70
2019-02-06T22:09:31.001Z,8.60
2019-02-06T22:11:40.464Z,8.50
2019-02-06T22:17:25.707Z,8.50
2019-02-06T22:20:27.273Z,8.50
2019-02-06T22:22:49.026Z,8.60
2019-02-06T22:25:10.904Z,8.60
2019-02-06T22:27:14.883Z,8.50
2019-02-06T22:30:03.463Z,8.50
2019-02-06T22:32:57.823Z,8.50
2019-02-06T22:35:02.289Z,8.50
2019-02-06T22:37:06.273Z,8.40
2019-02-06T22:39:13.638Z,8.50
2019-02-06T22:41:59.155Z,8.40
2019-02-06T22:44:06.568Z,8.40
2019-02-06T22:46:08.990Z,8.40
2019-02-06T22:48:12.908Z,8.30
2019-02-06T22:50:20.240Z,8.30
2019-02-06T22:52:24.295Z,8.30
2019-02-06T23:02:40.810Z,8.20
2019-02-06T23:10:49.002Z,8.20
2019-02-06T23:13:05.452Z,8.20
2019-02-06T23:15:08.615Z,8.20
2019-02-06T23:17:12.928Z,8.20
2019-02-06T23:19:17.006Z,8.20
2019-02-06T23:21:21.061Z,8.20
2019-02-06T23:23:25.349Z,8.20
2019-02-06T23:25:29.798Z,8.30
2019-02-06T23:27:33.825Z,8.20
2019-02-06T23:31:49.029Z,8.20
2019-02-06T23:33:54.196Z,8.20
2019-02-06T23:35:58.523Z,8.30
2019-02-06T23:38:02.978Z,8.30
2019-02-06T23:51:55.332Z,8.30
